Flight Track Log - Related Links

Times and Time Zones

All times are in EDT time to prevent confusion due to time zone crossing. See the EJA930 flight status page for this flight to view local times or setup timezone preferences in your user account.

Time Position Orientation Groundspeed Altitude Reporting Facility
EDT Latitude Longitude Course Direction KTS MPH feet Rate Location/Type
Wed 05:20:09 PM 40.8167 -74.1833 255° West 217 250 1,800  Level New York TRACON
Wed 05:21:09 PM 40.7833 -74.2500 237° Southwest 212 244 3,600 1,800 Climbing New York TRACON
Wed 05:22:09 PM 40.7167 -74.2667 191° South 258 297 5,400 1,250 Climbing New York TRACON
Wed 05:23:09 PM 40.6500 -74.2667 180° South 265 305 6,100 350 Climbing New York TRACON
Wed 05:24:09 PM 40.5833 -74.2667 180° South 266 306 6,100  Level New York TRACON
Wed 05:25:09 PM 40.5000 -74.2500 171° South 263 303 6,100  Level New York TRACON
Wed 05:26:09 PM 40.4333 -74.2167 159° South 278 320 6,100 -50 Level New York TRACON
Wed 05:27:09 PM 40.3833 -74.1667 143° Southeast 285 328 6,000 250 Descending New York TRACON
Wed 05:28:09 PM 40.3667 -74.0667 102° East 300 345 6,600 1,500 Climbing New York TRACON
Wed 05:29:09 PM 40.3167 -74.0000 135° Southeast 278 320 9,000 1,181 Climbing New York TRACON
Wed 05:30:16 PM 40.2247 -74.0331 195° South 284 327 9,100 516 Climbing New York Center
Wed 05:31:17 PM 40.1978 -74.1025 243° Southwest 256 295 10,100 1,636 Climbing New York Center
Wed 05:32:17 PM 40.1764 -74.1992 254° West 269 310 12,400 2,450 Climbing New York Center
Wed 05:33:17 PM 40.1583 -74.3125 258° West 294 338 15,000 1,300 Climbing New York Center
Wed 05:34:17 PM 40.0842 -74.3575 205° Southwest 284 327 15,000 847 Level New York Center
Wed 05:36:14 PM 39.8825 -74.3992 189° South 327 376 17,500 1,180 Climbing Washington Center
Wed 05:37:15 PM 39.7894 -74.4656 209° Southwest 360 414 18,500 1,041 Climbing Washington Center
Wed 05:38:15 PM 39.7175 -74.5639 226° Southwest 371 427 19,600 1,587 Climbing Washington Center
Wed 05:39:16 PM 39.6453 -74.6592 225° Southwest 377 434 21,700 1,279 Climbing Washington Center
Wed 05:40:17 PM 39.5711 -74.7597 226° Southwest 377 434 22,200 807 Climbing Washington Center
Wed 05:41:15 PM 39.4906 -74.8628 225° Southwest 388 447 23,300 1,169 Climbing Washington Center
Wed 05:42:15 PM 39.4119 -74.9658 225° Southwest 399 459 24,500 1,438 Climbing Washington Center
Wed 05:43:16 PM 39.3436 -75.0575 226° Southwest 399 459 26,200 1,525 Climbing Washington Center
Wed 05:44:17 PM 39.2542 -75.1386 215° Southwest 399 459 27,600 1,311 Climbing Washington Center
Wed 05:45:15 PM 39.1522 -75.1819 198° South 394 453 28,800 1,361 Climbing Washington Center
Wed 05:46:16 PM 39.0608 -75.2708 217° Southwest 399 459 30,300 1,488 Climbing Washington Center
Wed 05:47:16 PM 38.9797 -75.3753 225° Southwest 404 465 31,800 1,488 Climbing Washington Center
Wed 05:48:17 PM 38.8922 -75.4717 221° Southwest 409 471 33,300 1,350 Climbing Washington Center
Wed 05:49:16 PM 38.7839 -75.5331 204° Southwest 416 479 34,500 1,261 Climbing Washington Center
Wed 05:50:16 PM 38.6714 -75.5944 203° Southwest 428 493 35,800 1,537 Climbing Washington Center
Wed 05:51:17 PM 38.5631 -75.6528 203° Southwest 434 499 37,600 1,736 Climbing Washington Center
Wed 05:52:17 PM 38.4525 -75.7136 203° Southwest 434 499 39,300 1,220 Climbing Washington Center
Wed 05:53:15 PM 38.3439 -75.7744 204° Southwest 434 499 40,000 359 Climbing Washington Center
Wed 05:54:14 PM 38.2272 -75.8375 203° Southwest 445 512 40,000  Level Washington Center
Wed 05:55:16 PM 38.1061 -75.9031 203° Southwest 457 526 40,000  Level Washington Center
Wed 05:56:16 PM 37.9850 -75.9711 204° Southwest 467 537 40,000  Level Washington Center
Wed 05:57:16 PM 37.8636 -76.0389 204° Southwest 474 545 40,000  Level Washington Center
Wed 05:58:15 PM 37.7300 -76.1194 205° Southwest 482 555 40,000  Level Washington Center
Wed 05:59:16 PM 37.6128 -76.1658 197° South 482 555 40,000  Level Washington Center
Wed 06:00:17 PM 37.4731 -76.1833 186° South 491 565 40,000  Level Washington Center
Wed 06:01:15 PM 37.3394 -76.2031 187° South 491 565 40,000  Level Washington Center
Wed 06:02:17 PM 37.2036 -76.2308 189° South 491 565 40,000  Level Washington Center
Wed 06:03:15 PM 37.0700 -76.2661 192° South 491 565 40,000  Level Washington Center
Wed 06:04:16 PM 36.9383 -76.3014 192° South 486 559 40,000  Level Washington Center
Wed 06:05:16 PM 36.8047 -76.3417 194° South 486 559 40,000  Level Washington Center
Wed 06:06:17 PM 36.6686 -76.4103 202° Southwest 486 559 40,000  Level Washington Center
Wed 06:07:14 PM 36.5408 -76.4658 199° South 491 565 40,000  Level Washington Center
Wed 06:08:15 PM 36.4236 -76.5161 199° South 497 572 40,000  Level Washington Center
Wed 06:09:14 PM 36.2961 -76.5739 200° South 497 572 40,000  Level Washington Center
Wed 06:10:16 PM 36.1642 -76.6289 199° South 497 572 40,000  Level Washington Center
Wed 06:11:16 PM 36.0364 -76.6836 199° South 497 572 40,000  Level Washington Center
Wed 06:12:17 PM 35.9086 -76.7433 201° Southwest 492 566 40,000  Level Washington Center
Wed 06:13:14 PM 35.7786 -76.7981 199° South 492 566 40,000  Level Washington Center
Wed 06:14:15 PM 35.6486 -76.8522 199° South 492 566 40,000  Level Washington Center
Wed 06:15:15 PM 35.5208 -76.9114 201° Southwest 492 566 40,000  Level Washington Center
Wed 06:16:16 PM 35.3886 -76.9678 199° South 499 574 40,000  Level Washington Center
Wed 06:17:17 PM 35.2564 -77.0267 200° South 509 586 40,000  Level Washington Center
Wed 06:18:15 PM 35.1222 -77.0828 199° South 509 586 40,000  Level Washington Center
Wed 06:19:16 PM 34.9922 -77.1411 200° South 509 586 40,000  Level Washington Center
Wed 06:20:17 PM 34.8600 -77.1969 199° South 509 586 40,000  Level Washington Center
Wed 06:21:15 PM 34.7111 -77.2597 199° South 509 586 40,000  Level Washington Center
Wed 06:22:16 PM 34.5808 -77.3175 200° South 509 586 40,000  Level Washington Center
Wed 06:23:17 PM 34.4486 -77.3725 199° South 509 586 40,000  Level Washington Center
Wed 06:25:40 PM 34.1364 -77.5014 199° South 513 590 40,000  Level Jacksonville Center
Wed 06:26:40 PM 34.0011 -77.5597 200° South 518 596 40,000  Level Jacksonville Center
Wed 06:27:40 PM 33.8658 -77.6131 198° South 513 590 40,000  Level Jacksonville Center
Wed 06:28:40 PM 33.7306 -77.6711 200° South 513 590 40,000  Level Jacksonville Center
Wed 06:29:40 PM 33.5786 -77.7325 199° South 518 596 40,000  Level Jacksonville Center
Wed 06:30:40 PM 33.4575 -77.7842 200° South 518 596 40,000  Level Jacksonville Center
Wed 06:31:40 PM 33.3200 -77.8394 199° South 518 596 40,000  Level Jacksonville Center
Wed 06:32:40 PM 33.1803 -77.8969 199° South 518 596 40,000  Level Jacksonville Center
Wed 06:33:40 PM 33.0408 -77.9542 199° South 518 596 40,000  Level Jacksonville Center
Wed 06:34:40 PM 32.9011 -78.0114 199° South 524 603 40,000  Level Jacksonville Center
Wed 06:35:40 PM 32.7592 -78.0683 199° South 529 609 40,000  Level Jacksonville Center
Wed 06:36:40 PM 32.6175 -78.1253 199° South 535 616 40,000  Level Jacksonville Center
Wed 06:37:40 PM 32.4778 -78.1844 200° South 535 616 40,000  Level Jacksonville Center
Wed 06:38:40 PM 32.3336 -78.2411 198° South 540 621 40,000  Level Jacksonville Center
Wed 06:39:40 PM 32.1917 -78.2997 199° South 540 621 40,000  Level Jacksonville Center
Wed 06:40:40 PM 32.0500 -78.3583 199° South 540 621 40,000  Level Jacksonville Center
Wed 06:41:40 PM 31.9058 -78.4167 199° South 540 621 40,000  Level Jacksonville Center
Wed 06:42:40 PM 31.7617 -78.4750 199° South 540 621 40,000  Level Jacksonville Center
Wed 06:43:40 PM 31.6258 -78.5278 198° South 540 621 40,000  Level Jacksonville Center
Wed 06:44:40 PM 31.4836 -78.5808 198° South 540 621 40,000  Level Jacksonville Center
Wed 06:45:40 PM 31.3356 -78.6436 200° South 546 628 40,000  Level Jacksonville Center
Wed 06:46:40 PM 31.1933 -78.7011 199° South 546 628 40,000  Level Jacksonville Center
Wed 06:47:40 PM 31.0511 -78.7533 197° South 546 628 40,000  Level Jacksonville Center
Wed 06:48:40 PM 30.9047 -78.8108 199° South 551 634 40,000  Level Jacksonville Center
Wed 06:49:40 PM 30.7622 -78.8653 198° South 551 634 40,000  Level Jacksonville Center
Wed 06:50:40 PM 30.6197 -78.9206 198° South 560 644 40,000  Level Miami Center
Wed 06:51:40 PM 30.4753 -78.9756 198° South 544 626 40,000  Level Miami Center
Wed 06:52:40 PM 30.3306 -79.0353 200° South 544 626 40,000  Level Miami Center
Wed 06:53:40 PM 30.1961 -79.0997 203° Southwest 543 625 40,000  Level Miami Center
Wed 06:54:40 PM 30.0675 -79.1856 210° Southwest 535 616 40,000  Level Miami Center
Wed 06:55:40 PM 29.9408 -79.2811 213° Southwest 540 621 40,000  Level Miami Center
Wed 06:56:40 PM 29.8225 -79.3692 213° Southwest 535 616 40,000  Level Miami Center
Wed 06:57:40 PM 29.6958 -79.4619 212° Southwest 530 610 40,000 -250 Level Miami Center
Wed 06:58:40 PM 29.5753 -79.5544 214° Southwest 530 610 39,500 -900 Descending Miami Center
Wed 06:59:40 PM 29.4442 -79.6392 209° Southwest 535 616 38,200 -1,300 Descending Miami Center
Wed 07:00:40 PM 29.3172 -79.7314 212° Southwest 540 621 36,900 -1,100 Descending Miami Center
Wed 07:01:40 PM 29.1922 -79.8206 212° Southwest 540 621 36,000 -700 Descending Miami Center
Wed 07:02:40 PM 29.0675 -79.9075 211° Southwest 540 621 35,500 -900 Descending Miami Center
Wed 07:03:40 PM 28.9403 -79.9967 212° Southwest 540 621 34,200 -1,600 Descending Miami Center
Wed 07:04:40 PM 28.8075 -80.0639 204° Southwest 535 616 32,300 -1,100 Descending Miami Center
Wed 07:05:40 PM 28.6636 -80.0597 179° South 495 570 32,000 -150 Descending Miami Center
Wed 07:06:40 PM 28.5425 -79.9689 147° Southeast 502 578 32,000 -500 Level Miami Center
Wed 07:07:40 PM 28.4253 -79.8828 147° Southeast 544 626 31,000 -1,400 Descending Miami Center
Wed 07:08:40 PM 28.2958 -79.7875 147° Southeast 557 641 29,200 -1,650 Descending Miami Center
Wed 07:09:40 PM 28.1683 -79.6969 148° Southeast 557 641 27,700 -1,400 Descending Miami Center
Wed 07:10:40 PM 28.0344 -79.5994 147° Southeast 538 619 26,400 -1,350 Descending Miami Center
Wed 07:11:40 PM 27.9192 -79.5169 148° Southeast 522 601 25,000 -1,350 Descending Miami Center
Wed 07:12:40 PM 27.7967 -79.4694 161° South 456 525 23,700 -1,300 Descending Miami Center
Wed 07:13:40 PM 27.6772 -79.5042 194° South 451 519 22,400 -1,400 Descending Miami Center
Wed 07:14:40 PM 27.5406 -79.5456 195° South 462 532 20,900 -1,200 Descending Miami Center
Wed 07:15:40 PM 27.4492 -79.6394 222° Southwest 448 516 20,000 -450 Descending Miami Center
Wed 07:16:40 PM 27.4172 -79.7744 255° West 429 494 20,000  Level Miami Center
Wed 07:17:40 PM 27.4017 -79.9189 263° West 442 509 20,000  Level Miami Center
Wed 07:18:40 PM 27.3903 -80.0614 265° West 459 528 20,000 -300 Level Miami Center
Wed 07:19:40 PM 27.3725 -80.2036 262° West 464 534 19,400 -1,050 Descending Miami Center
Wed 07:20:40 PM 27.3461 -80.3431 258° West 464 534 17,900 -1,650 Descending Miami Center
Wed 07:21:40 PM 27.2992 -80.4725 248° West 453 521 16,100 -900 Descending Miami Center
Wed 07:22:40 PM 27.2525 -80.5808 244° Southwest 436 502 16,100  Level Miami Center
Wed 07:23:40 PM 27.2014 -80.7006 244° Southwest 436 502 16,100 -250 Level Miami Center
Wed 07:24:40 PM 27.1414 -80.8339 243° Southwest 436 502 15,600 -1,150 Descending Miami Center
Wed 07:25:40 PM 27.0964 -80.9536 247° West 436 502 13,800 -1,750 Descending Miami Center
Wed 07:26:40 PM 27.0594 -81.0714 251° West 420 483 12,100 -1,800 Descending Miami Center
Wed 07:27:40 PM 27.0000 -81.1811 239° Southwest 420 483 10,200 -1,050 Descending Miami Center
Wed 07:28:40 PM 26.9511 -81.2794 241° Southwest 385 443 10,000 -100 Descending Miami Center
Wed 07:29:40 PM 26.8708 -81.3136 201° Southwest 338 389 10,000  Level Miami Center
Wed 07:30:40 PM 26.7817 -81.3592 205° Southwest 343 395 10,000 -450 Level Miami Center
Wed 07:31:40 PM 26.6944 -81.4069 206° Southwest 350 403 9,100 -1,500 Descending Miami Center
Wed 07:32:40 PM 26.6222 -81.4481 207° Southwest 311 358 7,000 -2,300 Descending Miami Center
Wed 07:33:40 PM 26.5564 -81.4828 205° Southwest 283 326 4,500 -2,050 Descending Miami Center
Wed 07:34:40 PM 26.4947 -81.5175 207° Southwest 261 300 2,900 -750 Descending Miami Center
Wed 07:35:40 PM 26.4353 -81.5500 206° Southwest 249 287 3,000 100 Climbing Miami Center
Wed 07:37:00 PM 26.2547 -81.5692 250° West  Level FlightAware Approximate
Wed 07:44:00 PM 26.1500 -81.7667 246° West  Level FlightAware Approximate
Wed 07:45:00 PM 26.1524 -81.7756 246° West  Level Estimated
Wed 07:46:00 PM 26.1524 -81.7756 246° West  Level Estimated
Wed 07:47:00 PM 26.1524 -81.7756 246° West  Level Estimated
Wed 07:48:00 PM 26.1524 -81.7756 246° West  Level Estimated
Wed 07:49:00 PM 26.1524 -81.7756 246° West  Level Estimated
Wed 07:50:00 PM 26.1524 -81.7756 246° West  Level Estimated
Wed 07:51:00 PM 26.1524 -81.7756 246° West  Level Estimated

Login

Don't have an account? Register now (free) for customized features, flight alerts, and more!